Date,TemperatureHighF,TemperatureAvgF,TemperatureLowF,DewpointHighF,DewpointAvgF,DewpointLowF,HumidityHigh,HumidityAvg,HumidityLow,PressureMaxIn,PressureMinIn,WindSpeedMaxMPH,WindSpeedAvgMPH,GustSpeedMaxMPH,PrecipitationSumIn
2013-5-1,64,51,38,42,37,30,81,60,43,30.36,30.24,22,6,34,0.00
2013-5-2,73,57,42,47,41,36,82,59,34,30.30,30.15,21,7,31,0.00
2013-5-3,67,54,43,48,43,38,85,68,48,30.24,30.00,22,6,30,0.00
2013-5-4,87,66,42,54,43,33,87,50,19,30.06,29.62,14,4,24,0.00
2013-5-5,92,70,56,47,39,32,59,34,21,29.80,29.53,18,5,31,0.00
2013-5-6,76,61,52,53,47,42,76,61,43,29.94,29.80,10,4,15,0.00
2013-5-7,63,56,52,51,48,46,80,73,63,30.03,29.88,11,4,17,0.00
2013-5-8,65,56,52,50,46,44,80,70,53,30.15,30.03,11,4,16,0.00
2013-5-9,63,55,51,52,48,45,86,78,66,30.15,30.06,14,5,20,0.00
2013-5-10,64,55,51,53,48,46,87,78,65,30.21,30.15,10,2,12,0.00
2013-5-11,75,61,49,56,49,45,89,67,44,30.21,30.00,10,2,14,0.00
2013-5-12,75,63,57,58,52,49,82,68,51,30.15,30.03,11,4,18,0.00
2013-5-13,71,60,52,57,52,46,86,75,54,30.21,30.06,14,4,19,0.00
2013-5-14,64,57,50,50,46,42,86,68,48,30.24,30.06,14,4,20,0.00
2013-5-15,73,58,49,52,46,43,82,66,44,30.12,29.94,14,3,21,0.00
2013-5-16,69,60,53,53,49,46,85,70,51,30.00,29.94,12,4,17,0.09
2013-5-17,70,59,51,52,47,42,86,67,47,30.09,29.94,12,3,14,0.00
2013-5-18,65,55,50,52,48,43,90,78,62,30.30,30.06,17,4,25,0.08
2013-5-19,61,55,51,51,48,44,94,77,55,30.39,30.27,20,8,31,0.08
2013-5-20,66,55,44,52,46,41,91,73,54,30.30,29.94,16,5,24,0.00
2013-5-21,57,51,46,50,43,36,88,76,52,30.09,29.83,18,6,28,0.50
2013-5-22,52,48,44,48,43,38,89,85,75,30.06,30.00,14,5,18,2.07
2013-5-23,67,54,45,52,46,42,92,77,52,30.06,30.00,12,5,20,0.29
2013-5-24,63,54,46,50,46,41,86,74,55,30.09,30.03,8,3,14,0.04
2013-5-25,70,57,45,54,47,40,89,71,49,30.09,29.94,11,4,18,0.29
2013-5-26,68,58,53,54,50,46,87,75,56,30.06,29.94,14,5,22,0.04
2013-5-27,67,56,53,58,52,48,90,85,73,30.21,29.77,24,7,38,0.63
2013-5-28,70,58,53,56,51,46,92,78,51,30.00,29.74,19,5,28,0.20
2013-5-29,67,58,52,56,51,47,92,78,61,30.09,29.74,19,5,29,0.13
2013-5-30,68,56,49,54,48,43,89,75,49,30.24,30.06,10,3,12,0.04
2013-5-31,66,56,45,52,46,41,88,70,50,30.30,30.18,17,5,26,0.00